createdAt,value
2019-05-26T00:00:06.805Z,24.90
2019-05-26T00:02:35.857Z,24.80
2019-05-26T00:05:06.998Z,24.90
2019-05-26T00:07:35.991Z,24.80
2019-05-26T00:10:06.929Z,24.80
2019-05-26T00:12:36.038Z,24.80
2019-05-26T00:15:06.143Z,24.80
2019-05-26T00:17:35.038Z,24.80
2019-05-26T00:20:06.487Z,24.80
2019-05-26T00:22:35.481Z,24.80
2019-05-26T00:25:09.081Z,24.80
2019-05-26T00:27:38.750Z,24.80
2019-05-26T00:30:08.193Z,24.80
2019-05-26T00:32:37.598Z,24.80
2019-05-26T00:35:08.124Z,24.80
2019-05-26T00:37:48.587Z,24.70
2019-05-26T00:40:08.364Z,24.80
2019-05-26T00:42:37.563Z,24.70
2019-05-26T00:45:08.397Z,24.70
2019-05-26T00:47:37.391Z,24.70
2019-05-26T00:50:09.762Z,24.70
2019-05-26T00:52:38.867Z,24.70
2019-05-26T00:55:08.675Z,24.70
2019-05-26T00:57:37.772Z,24.70
2019-05-26T01:00:11.162Z,24.70
2019-05-26T01:02:40.055Z,24.70
2019-05-26T01:05:09.664Z,24.70
2019-05-26T01:07:38.962Z,24.70
2019-05-26T01:10:10.136Z,24.70
2019-05-26T01:12:39.411Z,24.70
2019-05-26T01:15:08.712Z,24.60
2019-05-26T01:17:37.913Z,24.60
2019-05-26T01:20:07.523Z,24.60
2019-05-26T01:22:37.435Z,24.60
2019-05-26T01:25:09.186Z,24.60
2019-05-26T01:27:38.483Z,24.60
2019-05-26T01:30:07.785Z,24.60
2019-05-26T01:32:36.568Z,24.60
2019-05-26T01:35:07.616Z,24.60
2019-05-26T01:37:39.679Z,24.60
2019-05-26T01:40:08.981Z,24.60
2019-05-26T01:42:38.384Z,24.60
2019-05-26T01:45:08.808Z,24.60
2019-05-26T01:47:37.904Z,24.60
2019-05-26T01:50:09.972Z,24.50
2019-05-26T01:52:38.868Z,24.50
2019-05-26T01:55:07.922Z,24.50
2019-05-26T01:57:37.567Z,24.50
2019-05-26T02:00:08.606Z,24.50
2019-05-26T02:02:37.600Z,24.50
2019-05-26T02:05:06.899Z,24.50
2019-05-26T02:07:35.681Z,24.50
2019-05-26T02:10:09.804Z,24.50
2019-05-26T02:12:38.792Z,24.50
2019-05-26T02:15:07.787Z,24.50
2019-05-26T02:17:40.465Z,24.50
2019-05-26T02:20:10.284Z,24.50
2019-05-26T02:22:39.374Z,24.50
2019-05-26T02:25:08.776Z,24.50
2019-05-26T02:27:38.692Z,24.40
2019-05-26T02:30:10.142Z,24.40
2019-05-26T02:32:38.928Z,24.40
2019-05-26T02:35:09.561Z,24.40
2019-05-26T02:37:38.560Z,24.40
2019-05-26T02:40:09.431Z,24.40
2019-05-26T02:42:38.384Z,24.40
2019-05-26T02:45:09.837Z,24.40
2019-05-26T02:47:39.135Z,24.40
2019-05-26T02:50:08.339Z,24.40
2019-05-26T02:52:37.431Z,24.40
2019-05-26T02:55:08.881Z,24.40
2019-05-26T02:57:37.974Z,24.40
2019-05-26T03:00:12.091Z,24.40
2019-05-26T03:02:41.187Z,24.40
2019-05-26T03:05:11.413Z,24.40
2019-05-26T03:07:42.445Z,24.30
2019-05-26T03:10:12.157Z,24.30
2019-05-26T03:12:44.529Z,24.30
2019-05-26T03:15:14.354Z,24.30
2019-05-26T03:17:43.351Z,24.30
2019-05-26T03:20:13.892Z,24.30
2019-05-26T03:22:43.169Z,24.30
2019-05-26T03:25:13.133Z,24.30
2019-05-26T03:27:42.696Z,24.30
2019-05-26T03:30:11.701Z,24.20
2019-05-26T03:32:40.710Z,24.20
2019-05-26T03:35:10.012Z,24.20
2019-05-26T03:37:39.003Z,24.20
2019-05-26T03:40:08.582Z,24.20
2019-05-26T03:42:38.809Z,24.20
2019-05-26T03:45:08.103Z,24.20
2019-05-26T03:47:37.097Z,24.20
2019-05-26T03:50:09.477Z,24.20
2019-05-26T03:52:38.568Z,24.20
2019-05-26T03:55:08.065Z,24.20
2019-05-26T03:57:37.054Z,24.20
2019-05-26T04:00:08.198Z,24.20
2019-05-26T04:02:37.192Z,24.20
2019-05-26T04:05:13.044Z,24.20
2019-05-26T04:07:41.938Z,24.20
2019-05-26T04:10:10.937Z,24.20
2019-05-26T04:12:40.231Z,24.20
2019-05-26T04:15:11.069Z,24.10
2019-05-26T04:17:40.065Z,24.10
2019-05-26T04:20:08.853Z,24.20
2019-05-26T04:22:37.746Z,24.10
2019-05-26T04:25:07.466Z,24.10
2019-05-26T04:27:36.339Z,24.10
2019-05-26T04:30:07.446Z,24.10
2019-05-26T04:32:36.480Z,24.10
2019-05-26T04:35:08.846Z,24.10
2019-05-26T04:37:37.840Z,24.10
2019-05-26T04:40:24.876Z,24.10
2019-05-26T04:42:38.078Z,24.10
2019-05-26T04:45:07.998Z,24.10
2019-05-26T04:47:36.888Z,24.10
2019-05-26T04:50:06.494Z,24.10
2019-05-26T04:52:35.801Z,24.10
2019-05-26T04:55:10.020Z,24.10
2019-05-26T04:57:39.002Z,24.10
2019-05-26T05:00:08.408Z,24.00
2019-05-26T05:02:37.295Z,24.00
2019-05-26T05:05:07.926Z,24.10
2019-05-26T05:07:37.126Z,24.00
2019-05-26T05:10:06.527Z,24.00
2019-05-26T05:12:36.340Z,24.00
2019-05-26T05:15:08.406Z,24.10
2019-05-26T05:17:37.403Z,24.00
2019-05-26T05:20:08.834Z,24.00
2019-05-26T05:22:37.637Z,24.00
2019-05-26T05:25:14.815Z,24.00
2019-05-26T05:27:40.132Z,24.00
2019-05-26T05:30:09.234Z,24.00
2019-05-26T05:32:38.124Z,24.00
2019-05-26T05:35:08.653Z,24.00
2019-05-26T05:37:37.646Z,24.00
2019-05-26T05:40:08.488Z,24.00
2019-05-26T05:42:37.582Z,24.00
2019-05-26T05:45:08.628Z,24.00
2019-05-26T05:47:38.013Z,24.00
2019-05-26T05:50:09.158Z,24.00
2019-05-26T05:52:38.354Z,24.00
2019-05-26T05:55:07.450Z,24.00
2019-05-26T05:57:37.262Z,24.00
2019-05-26T06:00:09.941Z,24.00
2019-05-26T06:02:38.935Z,24.00
2019-05-26T06:05:08.548Z,24.00
2019-05-26T06:07:37.537Z,24.00
2019-05-26T06:10:10.830Z,24.00
2019-05-26T06:12:39.824Z,24.00
2019-05-26T06:15:10.523Z,24.00
2019-05-26T06:17:39.661Z,24.00
2019-05-26T06:20:08.953Z,24.00
2019-05-26T06:22:37.950Z,23.90
2019-05-26T06:25:07.866Z,23.90
2019-05-26T06:27:36.955Z,23.90
2019-05-26T06:30:07.690Z,24.00
2019-05-26T06:32:38.014Z,23.90
2019-05-26T06:35:06.908Z,24.00
2019-05-26T06:37:37.127Z,23.90
2019-05-26T06:40:07.349Z,23.90
2019-05-26T06:42:36.444Z,23.90
2019-05-26T06:45:11.172Z,23.90
2019-05-26T06:47:40.472Z,24.00
2019-05-26T06:50:11.309Z,24.00
2019-05-26T06:52:40.361Z,24.00
2019-05-26T06:55:09.703Z,24.00
2019-05-26T06:57:38.596Z,24.00
2019-05-26T07:00:07.588Z,24.00
2019-05-26T07:02:36.684Z,24.00
2019-05-26T07:05:08.340Z,24.00
2019-05-26T07:07:37.333Z,24.00
2019-05-26T07:10:07.390Z,24.00
2019-05-26T07:12:37.778Z,24.00
2019-05-26T07:15:09.230Z,24.00
2019-05-26T07:17:38.526Z,24.00
2019-05-26T07:20:07.932Z,24.00
2019-05-26T07:22:36.925Z,24.00
2019-05-26T07:25:07.964Z,24.00
2019-05-26T07:27:36.856Z,24.00
2019-05-26T07:30:09.944Z,24.00
2019-05-26T07:32:39.043Z,24.00
2019-05-26T07:35:08.925Z,24.00
2019-05-26T07:37:38.565Z,24.00
2019-05-26T07:40:12.069Z,24.00
2019-05-26T07:42:41.160Z,24.10
2019-05-26T07:45:10.975Z,24.10
2019-05-26T07:47:39.973Z,24.10
2019-05-26T07:50:08.964Z,24.10
2019-05-26T07:52:37.958Z,24.10
2019-05-26T07:55:06.881Z,24.10
2019-05-26T07:57:35.934Z,24.10
2019-05-26T08:00:08.716Z,24.10
2019-05-26T08:02:37.709Z,24.10
2019-05-26T08:05:07.523Z,24.10
2019-05-26T08:07:37.438Z,24.10
2019-05-26T08:10:07.352Z,24.20
2019-05-26T08:12:36.344Z,24.20
2019-05-26T08:15:06.934Z,24.20
2019-05-26T08:17:35.868Z,24.20
2019-05-26T08:20:08.546Z,24.20
2019-05-26T08:22:37.541Z,24.20
2019-05-26T08:25:10.529Z,24.20
2019-05-26T08:27:39.652Z,24.20
2019-05-26T08:30:08.822Z,24.20
2019-05-26T08:32:37.934Z,24.20
2019-05-26T08:35:07.623Z,24.30
2019-05-26T08:37:37.680Z,24.30
2019-05-26T08:40:18.340Z,24.30
2019-05-26T08:42:50.689Z,24.30
2019-05-26T08:45:22.497Z,24.40
2019-05-26T08:47:52.780Z,24.40
2019-05-26T08:50:23.205Z,24.40
2019-05-26T08:52:52.807Z,24.40
2019-05-26T08:55:21.793Z,24.50
2019-05-26T08:57:50.788Z,24.50
2019-05-26T09:00:19.779Z,24.50
2019-05-26T09:02:49.794Z,24.50
2019-05-26T09:05:18.684Z,24.50
2019-05-26T09:07:47.783Z,24.50
2019-05-26T09:10:16.980Z,24.50
2019-05-26T09:12:59.701Z,24.50
2019-05-26T09:15:16.565Z,24.60
2019-05-26T09:17:45.493Z,24.60
2019-05-26T09:20:14.489Z,24.60
2019-05-26T09:22:43.376Z,24.60
2019-05-26T09:25:12.473Z,24.60
2019-05-26T09:27:41.372Z,24.70
2019-05-26T09:30:10.766Z,24.70
2019-05-26T09:32:40.067Z,24.70
2019-05-26T09:35:09.063Z,24.70
2019-05-26T09:37:38.056Z,24.80
2019-05-26T09:40:10.121Z,24.80
2019-05-26T09:42:39.113Z,24.80
2019-05-26T09:45:09.642Z,24.90
2019-05-26T09:47:38.942Z,24.90
2019-05-26T09:50:08.039Z,24.90
2019-05-26T09:52:37.554Z,25.00
2019-05-26T09:55:08.087Z,25.00
2019-05-26T09:57:37.177Z,25.00
2019-05-26T10:00:07.859Z,25.00
2019-05-26T10:02:37.005Z,25.00
2019-05-26T10:05:07.422Z,25.10
2019-05-26T10:07:36.422Z,25.10
2019-05-26T10:10:08.492Z,25.10
2019-05-26T10:12:37.592Z,25.10
2019-05-26T10:15:07.393Z,25.20
2019-05-26T10:17:38.226Z,25.20
2019-05-26T10:20:08.140Z,25.20
2019-05-26T10:22:37.133Z,25.30
2019-05-26T10:25:07.354Z,25.30
2019-05-26T10:27:36.352Z,25.30
2019-05-26T10:30:13.332Z,25.30
2019-05-26T10:32:42.322Z,25.30
2019-05-26T10:35:11.315Z,25.30
2019-05-26T10:37:40.410Z,25.40
2019-05-26T10:40:09.302Z,25.40
2019-05-26T10:42:38.294Z,25.40
2019-05-26T10:45:09.130Z,25.50
2019-05-26T10:47:38.225Z,25.50
2019-05-26T10:50:10.804Z,25.50
2019-05-26T10:52:39.799Z,25.50
2019-05-26T10:55:09.711Z,25.50
2019-05-26T10:57:38.711Z,25.60
2019-05-26T11:00:07.927Z,25.60
2019-05-26T11:02:36.997Z,25.60
2019-05-26T11:05:06.662Z,25.70
2019-05-26T11:07:35.707Z,25.70
2019-05-26T11:10:07.976Z,25.70
2019-05-26T11:12:36.975Z,25.80
2019-05-26T11:15:08.106Z,25.80
2019-05-26T11:17:37.203Z,25.90
2019-05-26T11:20:09.271Z,25.90
2019-05-26T11:22:38.161Z,26.00
2019-05-26T11:25:07.459Z,26.00
2019-05-26T11:27:36.553Z,26.00
2019-05-26T11:30:08.519Z,26.00
2019-05-26T11:32:37.614Z,26.00
2019-05-26T11:35:07.528Z,26.10
2019-05-26T11:37:37.340Z,26.10
2019-05-26T11:40:07.970Z,26.10
2019-05-26T11:42:37.784Z,26.20
2019-05-26T11:45:08.932Z,26.20
2019-05-26T11:47:37.923Z,26.20
2019-05-26T11:50:08.761Z,26.20
2019-05-26T11:52:37.647Z,26.30
2019-05-26T11:55:08.319Z,26.40
2019-05-26T11:57:37.702Z,26.40
2019-05-26T12:00:15.699Z,26.40
2019-05-26T12:02:46.027Z,26.40
2019-05-26T12:05:17.574Z,26.50
2019-05-26T12:07:45.642Z,26.50
2019-05-26T12:10:15.154Z,26.50
2019-05-26T12:12:44.147Z,26.50
2019-05-26T12:15:13.137Z,26.50
2019-05-26T12:17:42.220Z,26.60
2019-05-26T12:20:11.114Z,26.60
2019-05-26T12:22:40.208Z,26.60
2019-05-26T12:25:09.101Z,26.60
2019-05-26T12:27:38.090Z,26.70
2019-05-26T12:30:10.231Z,26.70
2019-05-26T12:32:40.380Z,26.70
2019-05-26T12:35:09.478Z,26.70
2019-05-26T12:37:38.364Z,26.70
2019-05-26T12:40:07.972Z,26.80
2019-05-26T12:42:36.966Z,26.80
2019-05-26T12:45:07.441Z,26.90
2019-05-26T12:47:42.323Z,26.90
2019-05-26T12:50:11.420Z,26.90
2019-05-26T12:52:40.313Z,27.00
2019-05-26T12:55:10.020Z,27.00
2019-05-26T12:57:39.223Z,27.00
2019-05-26T13:00:10.419Z,27.10
2019-05-26T13:02:39.355Z,27.10
2019-05-26T13:05:08.963Z,27.10
2019-05-26T13:07:37.969Z,27.20
2019-05-26T13:10:08.486Z,27.10
2019-05-26T13:12:37.483Z,27.20
2019-05-26T13:15:08.316Z,27.20
2019-05-26T13:17:38.535Z,27.20
2019-05-26T13:20:08.555Z,27.30
2019-05-26T13:22:37.693Z,27.30
2019-05-26T13:25:10.123Z,27.30
2019-05-26T13:27:39.127Z,27.30
2019-05-26T13:30:09.340Z,27.40
2019-05-26T13:32:38.641Z,27.40
2019-05-26T13:35:08.248Z,27.40
2019-05-26T13:37:37.240Z,27.50
2019-05-26T13:40:08.535Z,27.50
2019-05-26T13:42:37.711Z,27.40
2019-05-26T13:45:21.858Z,27.50
2019-05-26T13:47:41.201Z,27.50
2019-05-26T13:50:10.191Z,27.50
2019-05-26T13:52:41.034Z,27.60
2019-05-26T13:55:11.264Z,27.60
2019-05-26T13:57:40.243Z,27.60
2019-05-26T14:00:10.521Z,27.60
2019-05-26T14:02:40.686Z,27.60
2019-05-26T14:05:09.989Z,27.60
2019-05-26T14:07:39.288Z,27.70
2019-05-26T14:10:08.387Z,27.70
2019-05-26T14:12:37.274Z,27.70
2019-05-26T14:15:10.675Z,27.80
2019-05-26T14:17:39.581Z,27.70
2019-05-26T14:20:09.577Z,27.80
2019-05-26T14:22:38.477Z,27.80
2019-05-26T14:25:07.781Z,27.80
2019-05-26T14:27:36.868Z,27.90
2019-05-26T14:30:06.680Z,27.90
2019-05-26T14:32:35.673Z,27.90
2019-05-26T14:35:06.919Z,27.90
2019-05-26T14:37:35.806Z,28.00
2019-05-26T14:40:09.715Z,28.00
2019-05-26T14:42:38.708Z,28.00
2019-05-26T14:45:07.601Z,28.00
2019-05-26T14:47:36.695Z,28.00
2019-05-26T14:50:09.515Z,28.00
2019-05-26T14:52:38.781Z,28.00
2019-05-26T14:55:07.672Z,28.00
2019-05-26T14:57:36.774Z,28.00
2019-05-26T15:00:08.951Z,28.00
2019-05-26T15:02:38.036Z,28.00
2019-05-26T15:05:06.822Z,28.00
2019-05-26T15:07:36.331Z,28.00
2019-05-26T15:10:07.257Z,28.00
2019-05-26T15:12:36.149Z,28.00
2019-05-26T15:15:08.215Z,28.00
2019-05-26T15:17:37.105Z,28.10
2019-05-26T15:20:06.508Z,28.00
2019-05-26T15:22:35.506Z,28.10
2019-05-26T15:25:06.437Z,28.00
2019-05-26T15:27:35.370Z,28.00
2019-05-26T15:30:06.781Z,28.00
2019-05-26T15:32:35.670Z,28.00
2019-05-26T15:35:06.541Z,28.00
2019-05-26T15:37:35.606Z,28.00
2019-05-26T15:40:08.286Z,28.10
2019-05-26T15:42:37.218Z,28.10
2019-05-26T15:45:11.187Z,28.10
2019-05-26T15:47:40.588Z,28.10
2019-05-26T15:50:13.471Z,28.10
2019-05-26T15:52:40.931Z,28.00
2019-05-26T15:55:09.924Z,28.00
2019-05-26T15:57:38.915Z,28.00
2019-05-26T16:00:09.344Z,28.10
2019-05-26T16:02:38.776Z,28.10
2019-05-26T16:05:09.682Z,28.00
2019-05-26T16:07:38.573Z,28.10
2019-05-26T16:10:08.487Z,28.10
2019-05-26T16:12:39.426Z,28.00
2019-05-26T16:15:08.627Z,28.00
2019-05-26T16:17:38.863Z,28.10
2019-05-26T16:20:08.761Z,28.00
2019-05-26T16:22:37.755Z,28.10
2019-05-26T16:25:06.951Z,28.10
2019-05-26T16:27:36.155Z,28.00
2019-05-26T16:30:09.648Z,28.00
2019-05-26T16:32:39.870Z,28.00
2019-05-26T16:35:09.173Z,28.10
2019-05-26T16:37:38.163Z,28.00
2019-05-26T16:40:07.258Z,28.10
2019-05-26T16:42:36.153Z,28.00
2019-05-26T16:45:08.215Z,28.00
2019-05-26T16:47:37.132Z,28.00
2019-05-26T16:50:09.274Z,28.10
2019-05-26T16:52:38.268Z,28.00
2019-05-26T16:55:07.670Z,28.00
2019-05-26T16:57:36.561Z,28.00
2019-05-26T17:00:08.114Z,28.00
2019-05-26T17:02:37.415Z,28.00
2019-05-26T17:05:08.869Z,28.00
2019-05-26T17:07:37.762Z,28.00
2019-05-26T17:10:07.374Z,28.00
2019-05-26T17:12:36.672Z,28.00
2019-05-26T17:15:06.978Z,28.00
2019-05-26T17:17:36.594Z,28.00
2019-05-26T17:20:07.636Z,28.00
2019-05-26T17:22:36.650Z,28.00
2019-05-26T17:25:06.544Z,28.00
2019-05-26T17:27:35.648Z,27.90
2019-05-26T17:30:06.616Z,27.90
2019-05-26T17:32:35.775Z,27.90
2019-05-26T17:35:06.819Z,27.90
2019-05-26T17:37:35.810Z,27.90
2019-05-26T17:40:06.750Z,27.90
2019-05-26T17:42:35.640Z,27.90
2019-05-26T17:45:09.036Z,27.90
2019-05-26T17:47:39.158Z,27.90
2019-05-26T17:50:08.457Z,27.90
2019-05-26T17:52:37.467Z,27.90
2019-05-26T17:55:10.130Z,27.80
2019-05-26T17:57:39.226Z,27.80
2019-05-26T18:00:10.573Z,27.80
2019-05-26T18:02:39.567Z,27.80
2019-05-26T18:05:08.667Z,27.80
2019-05-26T18:07:37.550Z,27.80
2019-05-26T18:10:06.955Z,27.80
2019-05-26T18:12:36.156Z,27.80
2019-05-26T18:15:09.755Z,27.80
2019-05-26T18:17:46.808Z,27.80
2019-05-26T18:20:09.276Z,27.80
2019-05-26T18:22:38.269Z,27.80
2019-05-26T18:25:08.184Z,27.80
2019-05-26T18:27:37.181Z,27.80
2019-05-26T18:30:09.243Z,27.80
2019-05-26T18:32:40.081Z,27.80
2019-05-26T18:35:09.786Z,27.80
2019-05-26T18:37:38.678Z,27.80
2019-05-26T18:40:07.773Z,27.70
2019-05-26T18:42:36.676Z,27.70
2019-05-26T18:45:08.523Z,27.70
2019-05-26T18:47:37.415Z,27.70
2019-05-26T18:50:07.025Z,27.70
2019-05-26T18:52:37.861Z,27.70
2019-05-26T18:55:07.159Z,27.70
2019-05-26T18:57:36.153Z,27.70
2019-05-26T19:00:08.933Z,27.70
2019-05-26T19:02:38.134Z,27.60
2019-05-26T19:05:07.232Z,27.60
2019-05-26T19:07:36.120Z,27.60
2019-05-26T19:10:06.957Z,27.60
2019-05-26T19:12:36.060Z,27.60
2019-05-26T19:15:07.198Z,27.60
2019-05-26T19:17:36.704Z,27.60
2019-05-26T19:20:15.416Z,27.60
2019-05-26T19:22:37.461Z,27.60
2019-05-26T19:25:07.067Z,27.60
2019-05-26T19:27:36.059Z,27.60
2019-05-26T19:30:08.729Z,27.50
2019-05-26T19:32:38.968Z,27.50
2019-05-26T19:35:08.252Z,27.50
2019-05-26T19:37:37.246Z,27.50
2019-05-26T19:40:08.389Z,27.50
2019-05-26T19:42:38.307Z,27.40
2019-05-26T19:45:07.298Z,27.40
2019-05-26T19:47:36.295Z,27.40
2019-05-26T19:50:06.974Z,27.40
2019-05-26T19:52:35.837Z,27.40
2019-05-26T19:55:08.183Z,27.40
2019-05-26T19:57:37.178Z,27.40
2019-05-26T20:00:13.998Z,27.40
2019-05-26T20:02:44.074Z,27.40
2019-05-26T20:05:13.475Z,27.40
2019-05-26T20:07:42.775Z,27.40
2019-05-26T20:10:12.895Z,27.30
2019-05-26T20:12:41.992Z,27.30
2019-05-26T20:15:10.881Z,27.30
2019-05-26T20:17:39.977Z,27.30
2019-05-26T20:20:08.867Z,27.30
2019-05-26T20:22:37.861Z,27.30
2019-05-26T20:25:10.247Z,27.30
2019-05-26T20:27:40.455Z,27.30
2019-05-26T20:30:11.294Z,27.30
2019-05-26T20:32:40.283Z,27.30
2019-05-26T20:35:09.382Z,27.20
2019-05-26T20:37:38.271Z,27.20
2019-05-26T20:40:07.878Z,27.20
2019-05-26T20:42:36.875Z,27.20
2019-05-26T20:45:10.779Z,27.20
2019-05-26T20:47:40.078Z,27.20
2019-05-26T20:50:09.074Z,27.20
2019-05-26T20:52:38.069Z,27.20
2019-05-26T20:55:07.976Z,27.20
2019-05-26T20:57:36.974Z,27.20
2019-05-26T21:00:07.590Z,27.20
2019-05-26T21:02:37.531Z,27.20
2019-05-26T21:05:08.051Z,27.20
2019-05-26T21:07:36.975Z,27.20
2019-05-26T21:10:06.549Z,27.20
2019-05-26T21:12:37.387Z,27.10
2019-05-26T21:15:07.400Z,27.10
2019-05-26T21:17:36.703Z,27.10
2019-05-26T21:20:09.283Z,27.10
2019-05-26T21:22:38.376Z,27.10
2019-05-26T21:25:07.679Z,27.10
2019-05-26T21:27:36.578Z,27.10
2019-05-26T21:30:10.482Z,27.10
2019-05-26T21:32:39.475Z,27.10
2019-05-26T21:35:08.783Z,27.10
2019-05-26T21:37:37.875Z,27.00
2019-05-26T21:40:08.287Z,27.00
2019-05-26T21:42:38.208Z,27.00
2019-05-26T21:45:07.617Z,27.00
2019-05-26T21:47:37.830Z,27.00
2019-05-26T21:50:08.869Z,27.00
2019-05-26T21:52:37.867Z,27.00
2019-05-26T21:55:07.571Z,27.00
2019-05-26T21:57:36.462Z,27.00
2019-05-26T22:00:11.607Z,27.00
2019-05-26T22:02:40.696Z,26.90
2019-05-26T22:05:09.586Z,26.90
2019-05-26T22:07:38.580Z,27.00
2019-05-26T22:10:07.983Z,27.00
2019-05-26T22:12:36.873Z,26.90
2019-05-26T22:15:08.938Z,26.90
2019-05-26T22:17:37.996Z,26.90
2019-05-26T22:20:08.767Z,26.90
2019-05-26T22:22:38.067Z,26.90
2019-05-26T22:25:07.674Z,26.90
2019-05-26T22:27:36.668Z,26.90
2019-05-26T22:30:09.347Z,26.90
2019-05-26T22:32:38.342Z,26.80
2019-05-26T22:35:08.563Z,26.80
2019-05-26T22:37:38.482Z,26.80
2019-05-26T22:40:07.778Z,26.80
2019-05-26T22:42:36.772Z,26.80
2019-05-26T22:45:10.067Z,26.80
2019-05-26T22:47:39.162Z,26.80
2019-05-26T22:50:10.220Z,26.80
2019-05-26T22:52:39.195Z,26.70
2019-05-26T22:55:08.242Z,26.80
2019-05-26T22:57:37.490Z,26.80
2019-05-26T23:00:10.168Z,26.80
2019-05-26T23:02:41.315Z,26.70
2019-05-26T23:05:11.535Z,26.70
2019-05-26T23:07:40.832Z,26.70
2019-05-26T23:10:10.147Z,26.70
2019-05-26T23:12:39.535Z,26.70
2019-05-26T23:15:10.578Z,26.60
2019-05-26T23:17:39.880Z,26.70
2019-05-26T23:20:08.985Z,26.60
2019-05-26T23:22:37.864Z,26.60
2019-05-26T23:25:07.062Z,26.70
2019-05-26T23:27:37.085Z,26.60
2019-05-26T23:30:07.916Z,26.60
2019-05-26T23:32:36.915Z,26.60
2019-05-26T23:35:06.627Z,26.60
2019-05-26T23:37:35.617Z,26.60
2019-05-26T23:40:08.916Z,26.60
2019-05-26T23:42:37.805Z,26.60
2019-05-26T23:45:07.414Z,26.60
2019-05-26T23:47:36.409Z,26.60
2019-05-26T23:50:08.462Z,26.60
2019-05-26T23:52:37.454Z,26.60
2019-05-26T23:55:07.367Z,26.60
2019-05-26T23:57:37.286Z,26.60
